createdAt,value
2023-05-05T00:00:14.293Z,22.76
2023-05-05T00:01:14.282Z,22.77
2023-05-05T00:02:14.331Z,22.76
2023-05-05T00:03:14.395Z,22.76
2023-05-05T00:04:14.325Z,22.76
2023-05-05T00:05:14.259Z,22.76
2023-05-05T00:06:14.280Z,22.76
2023-05-05T00:07:14.309Z,22.76
2023-05-05T00:08:14.265Z,22.76
2023-05-05T00:09:14.267Z,22.75
2023-05-05T00:10:14.296Z,22.75
2023-05-05T00:11:14.325Z,22.76
2023-05-05T00:12:14.275Z,22.74
2023-05-05T00:13:14.325Z,22.75
2023-05-05T00:14:14.314Z,22.75
2023-05-05T00:15:14.339Z,22.75
2023-05-05T00:16:14.309Z,22.75
2023-05-05T00:17:14.426Z,22.74
2023-05-05T00:18:14.284Z,22.74
2023-05-05T00:19:14.336Z,22.74
2023-05-05T00:20:14.331Z,22.75
2023-05-05T00:21:14.285Z,22.74
2023-05-05T00:22:14.305Z,22.74
2023-05-05T00:23:14.332Z,22.74
2023-05-05T00:24:14.298Z,22.73
2023-05-05T00:25:14.311Z,22.73
2023-05-05T00:26:14.332Z,22.73
2023-05-05T00:27:14.313Z,22.74
2023-05-05T00:28:14.361Z,22.73
2023-05-05T00:29:14.331Z,22.73
2023-05-05T00:30:14.358Z,22.73
2023-05-05T00:31:14.415Z,22.72
2023-05-05T00:32:14.339Z,22.72
2023-05-05T00:33:14.334Z,22.72
2023-05-05T00:34:14.353Z,22.72
2023-05-05T00:35:14.346Z,22.72
2023-05-05T00:36:14.372Z,22.72
2023-05-05T00:37:14.378Z,22.72
2023-05-05T00:38:14.379Z,22.72
2023-05-05T00:39:14.403Z,22.72
2023-05-05T00:40:14.394Z,22.71
2023-05-05T00:41:14.413Z,22.72
2023-05-05T00:42:14.424Z,22.71
2023-05-05T00:43:14.397Z,22.72
2023-05-05T00:44:14.411Z,22.71
2023-05-05T00:45:14.429Z,22.70
2023-05-05T00:46:14.568Z,22.71
2023-05-05T00:47:14.433Z,22.70
2023-05-05T00:48:14.445Z,22.70
2023-05-05T00:49:14.489Z,22.71
2023-05-05T00:50:14.445Z,22.70
2023-05-05T00:51:14.466Z,22.70
2023-05-05T00:52:14.468Z,22.70
2023-05-05T00:53:14.478Z,22.70
2023-05-05T00:54:14.453Z,22.70
2023-05-05T00:55:14.478Z,22.69
2023-05-05T00:56:14.484Z,22.69
2023-05-05T00:57:14.518Z,22.69
2023-05-05T00:58:14.494Z,22.69
2023-05-05T00:59:14.512Z,22.69
2023-05-05T01:00:14.543Z,22.69
2023-05-05T01:01:14.542Z,22.69
2023-05-05T01:02:14.538Z,22.68
2023-05-05T01:03:14.549Z,22.68
2023-05-05T01:04:14.521Z,22.68
2023-05-05T01:05:14.521Z,22.68
2023-05-05T01:06:14.544Z,22.68
2023-05-05T01:07:14.531Z,22.68
2023-05-05T01:08:14.538Z,22.68
2023-05-05T01:09:14.550Z,22.68
2023-05-05T01:10:20.192Z,22.67
2023-05-05T01:11:15.542Z,22.67
2023-05-05T01:12:14.556Z,22.66
2023-05-05T01:13:14.565Z,22.67
2023-05-05T01:14:14.518Z,22.67
2023-05-05T01:15:14.501Z,22.66
2023-05-05T01:16:14.526Z,22.66
2023-05-05T01:17:14.495Z,22.66
2023-05-05T01:18:14.487Z,22.66
2023-05-05T01:19:14.483Z,22.66
2023-05-05T01:20:14.488Z,22.66
2023-05-05T01:21:14.454Z,22.65
2023-05-05T01:22:14.460Z,22.66
2023-05-05T01:23:14.439Z,22.66
2023-05-05T01:24:14.426Z,22.65
2023-05-05T01:25:14.432Z,22.65
2023-05-05T01:26:14.425Z,22.65
2023-05-05T01:27:14.466Z,22.65
2023-05-05T01:28:14.416Z,22.64
2023-05-05T01:29:14.393Z,22.64
2023-05-05T01:30:14.417Z,22.65
2023-05-05T01:31:14.394Z,22.65
2023-05-05T01:32:14.393Z,22.64
2023-05-05T01:33:14.365Z,22.64
2023-05-05T01:34:14.370Z,22.64
2023-05-05T01:35:14.348Z,22.64
2023-05-05T01:36:14.353Z,22.64
2023-05-05T01:37:14.338Z,22.63
2023-05-05T01:38:14.377Z,22.64
2023-05-05T01:39:14.372Z,22.64
2023-05-05T01:40:14.342Z,22.64
2023-05-05T01:41:14.299Z,22.63
2023-05-05T01:42:14.340Z,22.63
2023-05-05T01:43:14.342Z,22.63
2023-05-05T01:44:14.349Z,22.63
2023-05-05T01:45:14.373Z,22.62
2023-05-05T01:46:14.476Z,22.62
2023-05-05T01:47:14.381Z,22.62
2023-05-05T01:48:14.425Z,22.62
2023-05-05T01:49:14.443Z,22.61
2023-05-05T01:50:14.433Z,22.61
2023-05-05T01:51:14.498Z,22.61
2023-05-05T01:52:14.464Z,22.60
2023-05-05T01:53:14.495Z,22.61
2023-05-05T01:54:14.502Z,22.61
2023-05-05T01:55:14.503Z,22.61
2023-05-05T01:56:14.527Z,22.60
2023-05-05T01:57:14.537Z,22.60
2023-05-05T01:58:14.573Z,22.60
2023-05-05T01:59:14.595Z,22.60
2023-05-05T02:00:14.572Z,22.60
2023-05-05T02:01:14.614Z,22.60
2023-05-05T02:02:14.597Z,22.60
2023-05-05T02:03:14.797Z,22.60
2023-05-05T02:04:14.650Z,22.60
2023-05-05T02:05:14.635Z,22.59
2023-05-05T02:06:14.666Z,22.59
2023-05-05T02:07:14.691Z,22.59
2023-05-05T02:08:14.707Z,22.59
2023-05-05T02:09:14.691Z,22.59
2023-05-05T02:10:14.719Z,22.58
2023-05-05T02:11:14.757Z,22.59
2023-05-05T02:12:14.764Z,22.59
2023-05-05T02:13:14.962Z,22.58
2023-05-05T02:14:14.763Z,22.58
2023-05-05T02:15:14.796Z,22.58
2023-05-05T02:16:14.921Z,22.58
2023-05-05T02:17:14.834Z,22.58
2023-05-05T02:18:14.834Z,22.58
2023-05-05T02:19:14.818Z,22.58
2023-05-05T02:20:14.843Z,22.58
2023-05-05T02:21:14.869Z,22.58
2023-05-05T02:22:14.858Z,22.58
2023-05-05T02:23:14.880Z,22.58
2023-05-05T02:24:14.893Z,22.57
2023-05-05T02:25:14.937Z,22.57
2023-05-05T02:26:14.917Z,22.58
2023-05-05T02:27:14.968Z,22.57
2023-05-05T02:28:14.970Z,22.57
2023-05-05T02:29:14.962Z,22.57
2023-05-05T02:30:14.989Z,22.57
2023-05-05T02:31:15.025Z,22.56
2023-05-05T02:32:15.005Z,22.57
2023-05-05T02:33:15.022Z,22.57
2023-05-05T02:34:15.044Z,22.56
2023-05-05T02:35:15.060Z,22.56
2023-05-05T02:36:15.081Z,22.56
2023-05-05T02:37:15.092Z,22.56
2023-05-05T02:38:15.135Z,22.56
2023-05-05T02:39:15.141Z,22.56
2023-05-05T02:40:15.150Z,22.56
2023-05-05T02:41:15.183Z,22.55
2023-05-05T02:42:15.177Z,22.55
2023-05-05T02:43:15.259Z,22.55
2023-05-05T02:44:15.219Z,22.55
2023-05-05T02:45:15.266Z,22.55
2023-05-05T02:46:15.299Z,22.55
2023-05-05T02:47:15.290Z,22.55
2023-05-05T02:48:15.302Z,22.54
2023-05-05T02:49:15.313Z,22.55
2023-05-05T02:50:15.347Z,22.55
2023-05-05T02:51:15.351Z,22.55
2023-05-05T02:52:15.364Z,22.54
2023-05-05T02:53:15.391Z,22.54
2023-05-05T02:54:15.393Z,22.54
2023-05-05T02:55:15.429Z,22.54
2023-05-05T02:56:15.444Z,22.53
2023-05-05T02:57:15.442Z,22.54
2023-05-05T02:58:15.489Z,22.53
2023-05-05T02:59:16.366Z,22.53
2023-05-05T03:00:15.510Z,22.53
2023-05-05T03:01:15.567Z,22.52
2023-05-05T03:02:15.572Z,22.53
2023-05-05T03:03:15.697Z,22.53
2023-05-05T03:04:15.602Z,22.53
2023-05-05T03:05:15.606Z,22.52
2023-05-05T03:06:15.646Z,22.52
2023-05-05T03:07:15.647Z,22.52
2023-05-05T03:08:15.695Z,22.52
2023-05-05T03:09:15.718Z,22.51
2023-05-05T03:10:15.725Z,22.52
2023-05-05T03:11:15.739Z,22.51
2023-05-05T03:12:15.788Z,22.52
2023-05-05T03:13:15.826Z,22.52
2023-05-05T03:14:15.811Z,22.52
2023-05-05T03:15:15.841Z,22.52
2023-05-05T03:16:15.909Z,22.51
2023-05-05T03:17:15.884Z,22.51
2023-05-05T03:18:15.900Z,22.51
2023-05-05T03:19:15.937Z,22.51
2023-05-05T03:20:15.962Z,22.51
2023-05-05T03:21:16.030Z,22.50
2023-05-05T03:22:16.025Z,22.50
2023-05-05T03:23:16.046Z,22.50
2023-05-05T03:24:16.044Z,22.50
2023-05-05T03:25:16.065Z,22.50
2023-05-05T03:26:16.094Z,22.50
2023-05-05T03:27:16.122Z,22.50
2023-05-05T03:28:16.154Z,22.50
2023-05-05T03:29:16.177Z,22.50
2023-05-05T03:30:16.216Z,22.50
2023-05-05T03:31:16.276Z,22.50
2023-05-05T03:32:16.359Z,22.50
2023-05-05T03:33:16.302Z,22.50
2023-05-05T03:34:16.305Z,22.49
2023-05-05T03:35:16.313Z,22.50
2023-05-05T03:36:16.361Z,22.49
2023-05-05T03:37:16.377Z,22.49
2023-05-05T03:38:16.412Z,22.49
2023-05-05T03:39:16.440Z,22.49
2023-05-05T03:40:16.457Z,22.49
2023-05-05T03:41:16.487Z,22.48
2023-05-05T03:42:16.498Z,22.48
2023-05-05T03:43:16.568Z,22.47
2023-05-05T03:44:16.557Z,22.48
2023-05-05T03:45:16.594Z,22.48
2023-05-05T03:46:16.655Z,22.48
2023-05-05T03:47:16.633Z,22.49
2023-05-05T03:48:16.650Z,22.48
2023-05-05T03:49:16.681Z,22.48
2023-05-05T03:50:16.753Z,22.48
2023-05-05T03:51:16.715Z,22.47
2023-05-05T03:52:16.749Z,22.47
2023-05-05T03:53:16.861Z,22.48
2023-05-05T03:54:16.830Z,22.47
2023-05-05T03:55:16.846Z,22.47
2023-05-05T03:56:16.893Z,22.47
2023-05-05T03:57:16.926Z,22.47
2023-05-05T03:58:16.957Z,22.46
2023-05-05T03:59:16.967Z,22.46
2023-05-05T04:00:17.028Z,22.46
2023-05-05T04:01:17.045Z,22.47
2023-05-05T04:02:18.615Z,22.46
2023-05-05T04:03:17.219Z,22.46
2023-05-05T04:04:17.134Z,22.46
2023-05-05T04:05:17.144Z,22.45
2023-05-05T04:06:17.193Z,22.46
2023-05-05T04:07:17.231Z,22.46
2023-05-05T04:08:17.224Z,22.45
2023-05-05T04:09:17.257Z,22.45
2023-05-05T04:10:17.300Z,22.46
2023-05-05T04:11:17.298Z,22.46
2023-05-05T04:12:17.331Z,22.46
2023-05-05T04:13:17.389Z,22.46
2023-05-05T04:14:17.400Z,22.46
2023-05-05T04:15:17.430Z,22.46
2023-05-05T04:16:17.456Z,22.47
2023-05-05T04:17:17.507Z,22.46
2023-05-05T04:18:17.542Z,22.46
2023-05-05T04:19:17.551Z,22.46
2023-05-05T04:20:17.572Z,22.47
2023-05-05T04:21:17.601Z,22.46
2023-05-05T04:22:17.630Z,22.45
2023-05-05T04:23:17.699Z,22.46
2023-05-05T04:24:17.685Z,22.46
2023-05-05T04:25:17.732Z,22.46
2023-05-05T04:26:17.788Z,22.46
2023-05-05T04:27:17.810Z,22.46
2023-05-05T04:28:19.660Z,22.46
2023-05-05T04:29:17.834Z,22.45
2023-05-05T04:30:17.813Z,22.46
2023-05-05T04:31:17.799Z,22.45
2023-05-05T04:32:17.773Z,22.46
2023-05-05T04:33:17.806Z,22.47
2023-05-05T04:34:17.782Z,22.47
2023-05-05T04:35:17.759Z,22.47
2023-05-05T04:36:17.767Z,22.48
2023-05-05T04:37:17.754Z,22.47
2023-05-05T04:38:17.777Z,22.48
2023-05-05T04:39:17.746Z,22.48
2023-05-05T04:40:17.745Z,22.47
2023-05-05T04:41:17.758Z,22.47
2023-05-05T04:42:17.732Z,22.48
2023-05-05T04:43:17.704Z,22.47
2023-05-05T04:44:17.682Z,22.47
2023-05-05T04:45:17.692Z,22.48
2023-05-05T04:46:17.705Z,22.48
2023-05-05T04:47:17.691Z,22.48
2023-05-05T04:48:17.654Z,22.49
2023-05-05T04:49:17.667Z,22.50
2023-05-05T04:50:17.680Z,22.50
2023-05-05T04:51:17.638Z,22.50
2023-05-05T04:52:17.649Z,22.50
2023-05-05T04:53:17.637Z,22.50
2023-05-05T04:54:17.639Z,22.51
2023-05-05T04:55:17.604Z,22.52
2023-05-05T04:56:17.628Z,22.53
2023-05-05T04:57:17.594Z,22.56
2023-05-05T04:58:17.615Z,22.56
2023-05-05T04:59:17.598Z,22.58
2023-05-05T05:00:17.602Z,22.59
2023-05-05T05:01:17.579Z,22.60
2023-05-05T05:02:17.610Z,22.62
2023-05-05T05:03:17.628Z,22.63
2023-05-05T05:04:17.541Z,22.64
2023-05-05T05:05:17.554Z,22.65
2023-05-05T05:06:17.541Z,22.66
2023-05-05T05:07:17.524Z,22.68
2023-05-05T05:08:17.573Z,22.69
2023-05-05T05:09:17.523Z,22.70
2023-05-05T05:10:17.534Z,22.70
2023-05-05T05:11:17.519Z,22.70
2023-05-05T05:12:17.531Z,22.72
2023-05-05T05:13:17.702Z,22.73
2023-05-05T05:14:17.522Z,22.75
2023-05-05T05:15:17.478Z,22.76
2023-05-05T05:16:17.504Z,22.78
2023-05-05T05:17:17.482Z,22.79
2023-05-05T05:18:17.493Z,22.80
2023-05-05T05:19:17.483Z,22.80
2023-05-05T05:20:17.467Z,22.81
2023-05-05T05:21:17.430Z,22.82
2023-05-05T05:22:17.434Z,22.83
2023-05-05T05:23:17.456Z,22.84
2023-05-05T05:24:17.421Z,22.85
2023-05-05T05:25:17.417Z,22.87
2023-05-05T05:26:17.647Z,22.88
2023-05-05T05:27:17.441Z,22.89
2023-05-05T05:28:17.383Z,22.90
2023-05-05T05:29:17.449Z,22.88
2023-05-05T05:30:17.401Z,22.90
2023-05-05T05:31:17.488Z,22.89
2023-05-05T05:32:17.403Z,22.88
2023-05-05T05:33:17.355Z,22.91
2023-05-05T05:34:17.532Z,22.94
2023-05-05T05:35:17.394Z,22.91
2023-05-05T05:36:17.669Z,22.97
2023-05-05T05:37:17.366Z,23.03
2023-05-05T05:38:17.351Z,23.06
2023-05-05T05:39:17.594Z,23.07
2023-05-05T05:40:17.370Z,23.08
2023-05-05T05:41:17.381Z,23.08
2023-05-05T05:42:17.415Z,23.12
2023-05-05T05:43:17.499Z,23.14
2023-05-05T05:44:17.383Z,23.18
2023-05-05T05:45:17.467Z,23.22
2023-05-05T05:46:17.561Z,23.25
2023-05-05T05:47:17.554Z,23.28
2023-05-05T05:48:17.658Z,23.30
2023-05-05T05:49:17.677Z,23.29
2023-05-05T05:50:17.734Z,23.30
2023-05-05T05:51:17.862Z,23.30
2023-05-05T05:52:17.873Z,23.29
2023-05-05T05:53:17.967Z,23.29
2023-05-05T05:54:17.992Z,23.28
2023-05-05T05:55:18.094Z,23.29
2023-05-05T05:56:18.143Z,23.30
2023-05-05T05:57:18.207Z,23.29
2023-05-05T05:58:18.230Z,23.29
2023-05-05T05:59:18.305Z,23.29
2023-05-05T06:00:18.375Z,23.30
2023-05-05T06:01:18.424Z,23.30
2023-05-05T06:02:18.543Z,23.31
2023-05-05T06:03:18.743Z,23.33
2023-05-05T06:04:18.624Z,23.33
2023-05-05T06:05:18.691Z,23.34
2023-05-05T06:06:19.206Z,23.36
2023-05-05T06:07:18.799Z,23.37
2023-05-05T06:08:19.185Z,23.39
2023-05-05T06:09:18.885Z,23.40
2023-05-05T06:10:27.887Z,23.42
2023-05-05T06:11:19.972Z,23.43
2023-05-05T06:12:18.918Z,23.44
2023-05-05T06:13:18.933Z,23.46
2023-05-05T06:14:20.152Z,23.47
2023-05-05T06:15:18.914Z,23.48
2023-05-05T06:16:18.944Z,23.50
2023-05-05T06:17:18.898Z,23.52
2023-05-05T06:18:18.940Z,23.54
2023-05-05T06:19:18.873Z,23.55
2023-05-05T06:20:18.857Z,23.57
2023-05-05T06:21:18.952Z,23.59
2023-05-05T06:22:18.874Z,23.61
2023-05-05T06:23:18.874Z,23.63
2023-05-05T06:24:18.877Z,23.64
2023-05-05T06:25:18.952Z,23.65
2023-05-05T06:26:18.960Z,23.67
2023-05-05T06:27:18.978Z,23.68
2023-05-05T06:28:19.168Z,23.69
2023-05-05T06:29:19.038Z,23.71
2023-05-05T06:30:19.119Z,23.73
2023-05-05T06:31:19.143Z,23.74
2023-05-05T06:32:19.108Z,23.75
2023-05-05T06:33:19.147Z,23.76
2023-05-05T06:34:19.187Z,23.78
2023-05-05T06:35:19.204Z,23.79
2023-05-05T06:36:19.232Z,23.80
2023-05-05T06:37:19.236Z,23.82
2023-05-05T06:38:19.659Z,23.83
2023-05-05T06:39:19.272Z,23.85
2023-05-05T06:40:19.293Z,23.85
2023-05-05T06:41:19.302Z,23.86
2023-05-05T06:42:19.313Z,23.88
2023-05-05T06:43:19.352Z,23.90
2023-05-05T06:44:19.319Z,23.92
2023-05-05T06:45:19.336Z,23.94
2023-05-05T06:46:19.364Z,23.95
2023-05-05T06:47:19.699Z,23.96
2023-05-05T06:48:19.353Z,23.98
2023-05-05T06:49:19.386Z,24.00
2023-05-05T06:50:19.364Z,24.00
2023-05-05T06:51:19.439Z,24.01
2023-05-05T06:52:19.451Z,24.03
2023-05-05T06:53:19.399Z,24.04
2023-05-05T06:54:19.493Z,24.05
2023-05-05T06:55:19.402Z,24.05
2023-05-05T06:56:19.476Z,24.06
2023-05-05T06:57:19.418Z,24.08
2023-05-05T06:58:19.415Z,24.09
2023-05-05T06:59:19.413Z,24.10
2023-05-05T07:00:19.447Z,24.10
2023-05-05T07:01:19.612Z,24.11
2023-05-05T07:02:19.476Z,24.12
2023-05-05T07:03:19.627Z,24.13
2023-05-05T07:04:19.550Z,24.13
2023-05-05T07:05:19.441Z,24.14
2023-05-05T07:06:19.447Z,24.13
2023-05-05T07:07:19.471Z,24.14
2023-05-05T07:08:19.470Z,24.14
2023-05-05T07:09:19.504Z,24.15
2023-05-05T07:10:19.466Z,24.16
2023-05-05T07:11:19.495Z,24.15
2023-05-05T07:12:19.558Z,24.17
2023-05-05T07:13:19.690Z,24.16
2023-05-05T07:14:20.955Z,24.16
2023-05-05T07:15:28.769Z,24.18
2023-05-05T07:16:20.600Z,24.19
2023-05-05T07:17:19.544Z,24.20
2023-05-05T07:18:19.557Z,24.25
2023-05-05T07:19:19.535Z,24.27
2023-05-05T07:20:19.615Z,24.29
2023-05-05T07:21:19.564Z,24.32
2023-05-05T07:22:19.555Z,24.34
2023-05-05T07:23:19.517Z,24.36
2023-05-05T07:24:19.550Z,24.37
2023-05-05T07:25:19.514Z,24.39
2023-05-05T07:26:19.558Z,24.40
2023-05-05T07:27:19.492Z,24.41
2023-05-05T07:28:19.568Z,24.42
2023-05-05T07:29:19.775Z,24.42
2023-05-05T07:30:19.980Z,24.43
2023-05-05T07:31:19.690Z,24.38
2023-05-05T07:32:19.730Z,24.31
2023-05-05T07:33:19.740Z,24.25
2023-05-05T07:34:19.710Z,24.18
2023-05-05T07:35:19.682Z,24.14
2023-05-05T07:36:19.657Z,24.08
2023-05-05T07:37:19.664Z,24.06
2023-05-05T07:38:19.652Z,24.09
2023-05-05T07:39:19.685Z,24.13
2023-05-05T07:40:19.682Z,24.16
2023-05-05T07:41:19.667Z,24.21
2023-05-05T07:42:19.737Z,24.28
2023-05-05T07:43:19.718Z,24.32
2023-05-05T07:44:19.766Z,24.34
2023-05-05T07:45:19.788Z,24.38
2023-05-05T07:46:19.871Z,24.43
2023-05-05T07:47:20.079Z,24.46
2023-05-05T07:48:19.920Z,24.49
2023-05-05T07:49:19.994Z,24.50
2023-05-05T07:50:20.078Z,24.52
2023-05-05T07:51:20.154Z,24.54
2023-05-05T07:52:25.246Z,24.57
2023-05-05T07:53:21.141Z,24.60
2023-05-05T07:54:20.124Z,24.62
2023-05-05T07:55:20.149Z,24.64
2023-05-05T07:56:21.768Z,24.65
2023-05-05T07:57:20.142Z,24.68
2023-05-05T07:58:20.102Z,24.69
2023-05-05T07:59:20.113Z,24.71
2023-05-05T08:00:20.194Z,24.73
2023-05-05T08:01:20.144Z,24.76
2023-05-05T08:02:20.111Z,24.77
2023-05-05T08:03:20.264Z,24.79
2023-05-05T08:04:20.133Z,24.80
2023-05-05T08:05:20.045Z,24.81
2023-05-05T08:06:20.094Z,24.82
2023-05-05T08:07:20.115Z,24.83
2023-05-05T08:08:20.137Z,24.83
2023-05-05T08:09:20.178Z,24.84
2023-05-05T08:10:20.188Z,24.86
2023-05-05T08:11:20.297Z,24.88
2023-05-05T08:12:20.207Z,24.88
2023-05-05T08:13:20.548Z,24.89
2023-05-05T08:14:20.269Z,24.90
2023-05-05T08:15:20.290Z,24.90
2023-05-05T08:16:20.530Z,24.91
2023-05-05T08:17:20.345Z,24.92
2023-05-05T08:18:20.340Z,24.92
2023-05-05T08:19:28.615Z,24.92
2023-05-05T08:20:21.366Z,24.94
2023-05-05T08:21:20.328Z,24.95
2023-05-05T08:22:20.337Z,24.97
2023-05-05T08:23:20.304Z,24.98
2023-05-05T08:24:20.303Z,25.00
2023-05-05T08:25:20.354Z,25.00
2023-05-05T08:26:20.285Z,25.01
2023-05-05T08:27:20.315Z,25.00
2023-05-05T08:28:20.275Z,24.99
2023-05-05T08:29:20.279Z,24.97
2023-05-05T08:30:20.255Z,24.94
2023-05-05T08:31:27.425Z,24.92
2023-05-05T08:32:20.295Z,24.89
2023-05-05T08:33:20.269Z,24.86
2023-05-05T08:34:20.300Z,24.84
2023-05-05T08:35:20.268Z,24.82
2023-05-05T08:36:20.245Z,24.81
2023-05-05T08:37:20.231Z,24.79
2023-05-05T08:38:20.252Z,24.77
2023-05-05T08:39:20.289Z,24.75
2023-05-05T08:40:20.207Z,24.73
2023-05-05T08:41:20.194Z,24.70
2023-05-05T08:42:35.560Z,24.67
2023-05-05T08:43:21.184Z,24.65
2023-05-05T08:44:20.272Z,24.67
2023-05-05T08:45:20.163Z,24.68
2023-05-05T08:46:20.236Z,24.70
2023-05-05T08:47:20.212Z,24.73
2023-05-05T08:48:20.147Z,24.78
2023-05-05T08:49:20.135Z,24.80
2023-05-05T08:50:20.166Z,24.83
2023-05-05T08:51:20.134Z,24.86
2023-05-05T08:52:20.148Z,24.87
2023-05-05T08:53:20.144Z,24.90
2023-05-05T08:54:20.114Z,24.92
2023-05-05T08:55:20.087Z,24.93
2023-05-05T08:56:20.086Z,24.95
2023-05-05T08:57:20.076Z,24.96
2023-05-05T08:58:20.087Z,24.98
2023-05-05T08:59:20.112Z,24.98
2023-05-05T09:00:20.099Z,25.00
2023-05-05T09:01:20.127Z,25.02
2023-05-05T09:02:20.217Z,25.03
2023-05-05T09:03:20.278Z,25.04
2023-05-05T09:04:20.174Z,25.04
2023-05-05T09:05:20.203Z,25.04
2023-05-05T09:06:20.210Z,25.05
2023-05-05T09:07:20.242Z,25.05
2023-05-05T09:08:20.247Z,25.06
2023-05-05T09:09:20.279Z,25.07
2023-05-05T09:10:20.331Z,25.08
2023-05-05T09:11:20.316Z,25.09
2023-05-05T09:12:20.335Z,25.10
2023-05-05T09:13:20.407Z,25.10
2023-05-05T09:14:20.361Z,25.11
2023-05-05T09:15:20.381Z,25.12
2023-05-05T09:16:20.429Z,25.12
2023-05-05T09:17:20.409Z,25.12
2023-05-05T09:18:20.415Z,25.14
2023-05-05T09:19:20.450Z,25.15
2023-05-05T09:20:20.432Z,25.16
2023-05-05T09:21:20.452Z,25.17
2023-05-05T09:22:20.441Z,25.17
2023-05-05T09:23:20.466Z,25.18
2023-05-05T09:24:20.485Z,25.18
2023-05-05T09:25:20.484Z,25.17
2023-05-05T09:26:20.485Z,25.18
2023-05-05T09:27:20.500Z,25.18
2023-05-05T09:28:20.517Z,25.20
2023-05-05T09:29:20.545Z,25.20
2023-05-05T09:30:20.583Z,25.20
2023-05-05T09:31:20.573Z,25.21
2023-05-05T09:32:20.541Z,25.20
2023-05-05T09:33:20.629Z,25.20
2023-05-05T09:34:20.580Z,25.20
2023-05-05T09:35:20.697Z,25.21
2023-05-05T09:36:20.565Z,25.19
2023-05-05T09:37:20.586Z,25.20
2023-05-05T09:38:20.601Z,25.18
2023-05-05T09:39:20.632Z,25.17
2023-05-05T09:40:20.729Z,25.16
2023-05-05T09:41:20.669Z,25.14
2023-05-05T09:42:20.672Z,25.11
2023-05-05T09:43:20.666Z,25.10
2023-05-05T09:44:20.811Z,25.11
2023-05-05T09:45:20.724Z,25.12
2023-05-05T09:46:20.788Z,25.12
2023-05-05T09:47:29.355Z,25.13
2023-05-05T09:48:21.762Z,25.11
2023-05-05T09:49:20.754Z,25.10
2023-05-05T09:50:20.886Z,25.10
2023-05-05T09:51:20.745Z,25.10
2023-05-05T09:52:20.680Z,25.11
2023-05-05T09:53:20.687Z,25.09
2023-05-05T09:54:20.683Z,25.07
2023-05-05T09:55:20.656Z,25.06
2023-05-05T09:56:20.655Z,25.06
2023-05-05T09:57:20.654Z,25.07
2023-05-05T09:58:20.717Z,25.08
2023-05-05T09:59:20.696Z,25.09
2023-05-05T10:00:20.665Z,25.09
2023-05-05T10:01:20.686Z,25.10
2023-05-05T10:02:20.636Z,25.10
2023-05-05T10:03:20.606Z,25.09
2023-05-05T10:04:20.891Z,25.08
2023-05-05T10:05:20.688Z,25.08
2023-05-05T10:06:20.602Z,25.08
2023-05-05T10:07:20.618Z,25.10
2023-05-05T10:08:20.606Z,25.10
2023-05-05T10:09:20.602Z,25.10
2023-05-05T10:10:20.573Z,25.11
2023-05-05T10:11:20.564Z,25.11
2023-05-05T10:12:20.539Z,25.12
2023-05-05T10:13:20.552Z,25.13
2023-05-05T10:14:20.598Z,25.12
2023-05-05T10:15:20.580Z,25.12
2023-05-05T10:16:20.623Z,25.10
2023-05-05T10:17:20.708Z,25.10
2023-05-05T10:18:21.421Z,25.12
2023-05-05T10:19:20.714Z,25.13
2023-05-05T10:20:20.671Z,25.14
2023-05-05T10:21:20.725Z,25.14
2023-05-05T10:22:20.805Z,25.16
2023-05-05T10:23:21.180Z,25.17
2023-05-05T10:24:20.717Z,25.17
2023-05-05T10:25:20.872Z,25.19
2023-05-05T10:26:20.851Z,25.19
2023-05-05T10:27:20.778Z,25.18
2023-05-05T10:28:21.025Z,25.14
2023-05-05T10:29:20.776Z,25.12
2023-05-05T10:30:20.803Z,25.10
2023-05-05T10:31:26.493Z,25.10
2023-05-05T10:34:20.932Z,25.09
2023-05-05T10:35:20.834Z,25.10
2023-05-05T10:36:20.824Z,25.11
2023-05-05T10:37:20.800Z,25.13
2023-05-05T10:38:20.801Z,25.14
2023-05-05T10:39:20.818Z,25.16
2023-05-05T10:40:20.773Z,25.19
2023-05-05T10:41:20.751Z,25.22
2023-05-05T10:42:20.732Z,25.22
2023-05-05T10:43:20.808Z,25.23
2023-05-05T10:44:20.738Z,25.24
2023-05-05T10:45:20.860Z,25.25
2023-05-05T10:46:20.770Z,25.26
2023-05-05T10:47:20.705Z,25.27
2023-05-05T10:48:20.746Z,25.26
2023-05-05T10:49:20.712Z,25.26
2023-05-05T10:50:20.809Z,25.26
2023-05-05T10:51:31.109Z,25.25
2023-05-05T10:52:21.695Z,25.25
2023-05-05T10:53:20.688Z,25.26
2023-05-05T10:54:20.741Z,25.25
2023-05-05T10:55:20.761Z,25.26
2023-05-05T10:56:20.652Z,25.24
2023-05-05T10:57:20.652Z,25.24
2023-05-05T10:58:20.650Z,25.24
2023-05-05T10:59:20.627Z,25.25
2023-05-05T11:00:20.629Z,25.25
2023-05-05T11:01:20.694Z,25.26
2023-05-05T11:02:20.604Z,25.27
2023-05-05T11:03:20.659Z,25.28
2023-05-05T11:04:20.597Z,25.29
2023-05-05T11:05:20.663Z,25.30
2023-05-05T11:06:20.598Z,25.32
2023-05-05T11:07:20.621Z,25.32
2023-05-05T11:08:20.580Z,25.33
2023-05-05T11:09:20.603Z,25.33
2023-05-05T11:10:20.872Z,25.33
2023-05-05T11:11:20.613Z,25.34
2023-05-05T11:12:20.594Z,25.34
2023-05-05T11:13:20.539Z,25.34
2023-05-05T11:14:20.521Z,25.35
2023-05-05T11:15:20.515Z,25.36
2023-05-05T11:16:20.535Z,25.36
2023-05-05T11:17:20.498Z,25.37
2023-05-05T11:18:20.526Z,25.38
2023-05-05T11:19:20.484Z,25.42
2023-05-05T11:20:20.526Z,25.42
2023-05-05T11:21:20.489Z,25.42
2023-05-05T11:22:20.501Z,25.41
2023-05-05T11:23:20.509Z,25.40
2023-05-05T11:24:20.472Z,25.38
2023-05-05T11:25:20.491Z,25.38
2023-05-05T11:26:20.452Z,25.35
2023-05-05T11:27:20.542Z,25.34
2023-05-05T11:28:20.444Z,25.32
2023-05-05T11:29:20.452Z,25.31
2023-05-05T11:30:20.427Z,25.29
2023-05-05T11:31:20.449Z,25.27
2023-05-05T11:32:20.407Z,25.26
2023-05-05T11:33:20.843Z,25.24
2023-05-05T11:34:20.404Z,25.22
2023-05-05T11:35:20.400Z,25.21
2023-05-05T11:36:20.377Z,25.20
2023-05-05T11:37:20.363Z,25.18
2023-05-05T11:38:20.369Z,25.17
2023-05-05T11:39:20.397Z,25.15
2023-05-05T11:40:20.361Z,25.14
2023-05-05T11:41:20.356Z,25.13
2023-05-05T11:42:20.380Z,25.12
2023-05-05T11:43:20.520Z,25.10
2023-05-05T11:44:20.431Z,25.09
2023-05-05T11:45:20.510Z,25.07
2023-05-05T11:46:20.510Z,25.06
2023-05-05T11:47:20.487Z,25.05
2023-05-05T11:48:20.520Z,25.04
2023-05-05T11:49:20.551Z,25.02
2023-05-05T11:50:20.581Z,25.02
2023-05-05T11:51:20.601Z,25.01
2023-05-05T11:52:20.632Z,25.01
2023-05-05T11:53:20.656Z,25.00
2023-05-05T11:54:20.681Z,25.00
2023-05-05T11:55:20.696Z,25.01
2023-05-05T11:56:20.722Z,25.00
2023-05-05T11:57:20.753Z,25.00
2023-05-05T11:58:20.801Z,24.99
2023-05-05T11:59:20.858Z,24.99
2023-05-05T12:00:20.828Z,24.98
2023-05-05T12:01:20.846Z,24.97
2023-05-05T12:02:20.897Z,24.97
2023-05-05T12:03:20.988Z,24.96
2023-05-05T12:04:20.918Z,24.95
2023-05-05T12:05:20.949Z,24.94
2023-05-05T12:06:20.979Z,24.94
2023-05-05T12:07:21.019Z,24.93
2023-05-05T12:08:21.007Z,24.92
2023-05-05T12:09:21.043Z,24.93
2023-05-05T12:10:21.065Z,24.91
2023-05-05T12:11:21.078Z,24.91
2023-05-05T12:12:21.108Z,24.90
2023-05-05T12:13:21.310Z,24.90
2023-05-05T12:14:21.159Z,24.91
2023-05-05T12:15:21.302Z,24.90
2023-05-05T12:16:21.216Z,24.90
2023-05-05T12:17:21.221Z,24.90
2023-05-05T12:18:21.412Z,24.90
2023-05-05T12:19:21.269Z,24.91
2023-05-05T12:20:21.322Z,24.91
2023-05-05T12:21:21.328Z,24.90
2023-05-05T12:22:21.333Z,24.90
2023-05-05T12:23:21.359Z,24.90
2023-05-05T12:24:21.385Z,24.90
2023-05-05T12:25:21.437Z,24.90
2023-05-05T12:26:21.492Z,24.90
2023-05-05T12:27:21.543Z,24.89
2023-05-05T12:28:21.610Z,24.90
2023-05-05T12:29:21.641Z,24.90
2023-05-05T12:30:21.707Z,24.89
2023-05-05T12:31:21.769Z,24.89
2023-05-05T12:32:21.741Z,24.88
2023-05-05T12:33:21.817Z,24.89
2023-05-05T12:34:21.795Z,24.89
2023-05-05T12:35:21.799Z,24.88
2023-05-05T12:36:21.828Z,24.88
2023-05-05T12:37:21.873Z,24.88
2023-05-05T12:38:21.870Z,24.88
2023-05-05T12:39:21.894Z,24.87
2023-05-05T12:40:21.928Z,24.88
2023-05-05T12:41:21.957Z,24.87
2023-05-05T12:42:21.995Z,24.87
2023-05-05T12:43:22.019Z,24.86
2023-05-05T12:44:22.021Z,24.87
2023-05-05T12:45:22.050Z,24.86
2023-05-05T12:46:22.104Z,24.86
2023-05-05T12:47:22.126Z,24.86
2023-05-05T12:48:22.097Z,24.86
2023-05-05T12:49:22.118Z,24.85
2023-05-05T12:50:22.200Z,24.85
2023-05-05T12:51:22.174Z,24.85
2023-05-05T12:52:22.196Z,24.85
2023-05-05T12:53:22.205Z,24.85
2023-05-05T12:54:22.245Z,24.84